Terminal Aerodrome Forecast
Issued by NWS Paducah, KY

Home | Current Version | Previous Version | Text Only | Print | Product List | Glossary On
Versions: 1 2 3 4 5 6 7 8 9 10 11 12 13 14 15 16 17 18 19
000
FTUS43 KPAH 222219 AAB
TAFEVV
TAF AMD
KEVV 222219Z 2222/2318 15010KT P6SM -SHRA OVC009
     FM230000 15005KT P6SM BKN015
     FM230300 16007KT P6SM OVC035
     FM231000 20006KT P6SM VCTS OVC015CB=

USA.gov is the U.S. government's official web portal to all federal, state and local government web resources and services.